Latest Coastal Weather Observations for Devonport Airport

IDT60701

Issued at 9:51 am EDT Tuesday 31 March 2015 (issued every 10 minutes, with the page automatically refreshed every 10 minutes)

About coastal observations | Map of coastal stations | Coastal observations for TAS | Marine services | Other Formats
Station Details ID: 091126 Name: DEVONPORT AIRPORT Lat: -41.17 Lon: 146.43 Height: 8.0 m
Data from the previous 72 hours. | See also: Recent months at Devonport Airport
Date/Time
EDT
Temp

°C
Wind Pressure Rain
since 9am
mm
Weather Cloud Vis
km
Sea
Height
m
Swell
Dir
 
Speed
knots
Gust
knots
hPa Trend Height
m
Period
s
Dir
31/09:30am 11.5 S 4 5 1026.2 - 0.0 - - 10 - - - -
31/09:00am 10.3 SSE 4 6 1025.9 - 0.0 - - 10 - - - -
31/08:30am 8.4 S 7 8 1025.9 - 0.0 - - 10 - - - -
31/08:00am 7.4 S 6 9 1025.7 - 0.0 - - 10 - - - -
31/07:30am 6.9 SSE 8 9 1025.3 - 0.0 - - 10 - - - -
31/07:00am 6.7 S 7 9 1025.0 - 0.0 - - 10 - - - -
31/06:30am 6.7 SSW 6 7 1024.7 - 0.0 - - 10 - - - -
31/06:00am 7.7 SSW 5 6 1024.4 - 0.0 - - 10 - - - -
31/05:30am 7.5 S 5 6 1024.3 - 0.0 - - 10 - - - -
31/05:00am 7.6 SSE 7 9 1024.0 - 0.0 - - 10 - - - -
31/04:30am 7.2 SSW 3 4 1024.2 - 0.0 - - 10 - - - -
31/04:00am 8.0 S 5 6 1023.9 - 0.0 - - 10 - - - -
31/03:30am 8.1 S 5 6 1024.1 - 0.0 - - 10 - - - -
31/03:00am 8.6 SSW 4 6 1024.3 - 0.0 - - 10 - - - -
31/02:30am 10.1 SE 4 7 1024.2 - 0.0 - - 10 - - - -
31/02:00am 10.0 SSW 5 7 1024.1 - 0.0 - - 10 - - - -
31/01:00am 11.5 W 9 11 1024.1 - 0.0 - - 10 - - - -
31/12:00am 13.2 W 13 16 1024.2 - 0.0 - - 32 - - - -
 
Date/Time
EDT
Temp

°C
Wind Pressure Rain
since 9am
mm
Weather Cloud Vis
km
Sea
Height
m
Swell
Dir
 
Speed
knots
Gust
knots
hPa Trend Height
m
Period
s
Dir
30/11:30pm 13.6 W 11 15 1024.2 - 0.0 - - 10 - - - -
30/11:00pm 13.7 W 12 14 1024.1 - 0.0 - - 10 - - - -
30/10:30pm 13.8 W 12 14 1024.1 - 0.0 - - 10 - - - -
30/10:00pm 13.7 W 11 13 1024.1 - 0.0 - - 10 - - - -
30/09:30pm 13.0 W 10 12 1024.0 - 0.0 - - 10 - - - -
30/09:00pm 14.1 W 11 14 1023.9 - 0.0 - - 10 - - - -
30/08:30pm 14.3 W 8 10 1023.6 - 0.0 - - 10 - - - -
30/08:00pm 14.7 W 6 8 1023.2 - 0.0 - - 10 - - - -
30/07:30pm 16.3 W 12 15 1022.6 - 0.0 - - 10 - - - -
30/07:00pm 16.9 W 11 14 1022.1 - 0.0 - - 10 - - - -
30/06:30pm 18.3 W 14 17 1021.7 - 0.0 - - 10 - - - -
30/06:00pm 18.9 WNW 16 19 1021.3 - 0.0 - - 10 - - - -
30/05:30pm 19.2 WNW 17 23 1021.0 - 0.0 - - 10 - - - -
30/05:00pm 19.4 W 17 21 1020.9 - 0.0 - - 10 - - - -
30/04:30pm 19.6 WNW 17 22 1020.8 - 0.0 - - 10 - - - -
30/04:00pm 19.6 WNW 19 25 1020.8 - 0.0 - - 10 - - - -
30/03:30pm 19.9 WNW 20 24 1020.8 - 0.0 - - 10 - - - -
30/03:00pm 20.0 WNW 18 24 1020.8 - 0.0 - Mostly clear 10 - - - -
30/02:30pm 20.2 W 20 26 1020.8 - 0.0 - Partly cloudy 10 - - - -
30/02:00pm 18.9 NW 18 22 1020.9 - 0.0 - Partly cloudy 10 - - - -
30/01:30pm 19.7 NW 18 22 1021.1 - 0.0 - - 10 - - - -
30/01:00pm 19.4 WNW 19 23 1021.2 - 0.0 - Partly cloudy 10 - - - -
30/12:30pm 18.9 WNW 16 19 1021.5 - 0.0 - Partly cloudy 10 - - - -
30/12:00pm 18.2 WNW 17 21 1021.5 - 0.0 - Mostly cloudy 10 - - - -
30/11:30am 16.8 WNW 14 17 1021.8 - 0.0 - Partly cloudy 10 - - - -
30/11:29am 17.2 WNW 14 17 1021.8 - 0.0 - Partly cloudy 10 - - - -
30/11:08am 16.7 WNW 15 19 1022.0 - 0.0 - Partly cloudy 6 - - - -
30/11:00am 16.9 WNW 17 21 1021.9 - 0.0 - Partly cloudy 10 - - - -
30/10:30am 17.6 WNW 16 20 1021.8 - 0.0 - Partly cloudy 10 - - - -
30/10:00am 16.8 WNW 14 18 1021.7 - 0.0 - Partly cloudy 10 - - - -
30/09:30am 16.7 WNW 12 15 1021.3 - 0.0 - Partly cloudy 10 - - - -
30/09:00am 16.5 WNW 12 16 1021.2 - 0.0 - Mostly cloudy 10 - - - -
30/08:30am 16.2 WNW 12 15 1021.1 - 0.0 - Cloudy 10 - - - -
30/08:00am 15.8 WNW 13 16 1020.8 - 0.0 - Cloudy 10 - - - -
30/07:30am 15.6 WNW 12 15 1020.5 - 0.0 - Partly cloudy 10 - - - -
30/07:00am 15.4 WNW 13 16 1020.2 - 0.0 - Partly cloudy 10 - - - -
30/06:30am 15.7 WNW 15 19 1019.9 - 0.0 - Partly cloudy 10 - - - -
30/06:00am 15.7 WNW 15 20 1019.7 - 0.0 - Cloudy 10 - - - -
30/05:30am 15.9 WNW 16 19 1019.7 - 0.0 - Cloudy 10 - - - -
30/05:00am 15.9 WNW 17 21 1019.7 - 0.0 - Cloudy 10 - - - -
30/04:30am 16.0 WNW 16 18 1019.7 - 0.0 - Cloudy 10 - - - -
30/04:00am 15.9 WNW 15 18 1019.8 - 0.0 - Cloudy 10 - - - -
30/03:30am 16.1 WNW 16 21 1019.8 - 0.0 - Partly cloudy 10 - - - -
30/03:29am 16.1 WNW 17 21 1019.8 - 0.0 - Partly cloudy 10 - - - -
30/03:00am 16.1 WNW 16 20 1020.0 - 0.0 - Cloudy 10 - - - -
30/02:48am 16.1 WNW 17 21 1020.0 - 0.0 - Partly cloudy 10 - - - -
30/02:30am 16.1 WNW 17 21 1020.1 - 0.0 - Partly cloudy 10 - - - -
30/02:13am 16.1 WNW 16 21 1020.2 - 0.0 - Partly cloudy 10 - - - -
30/02:00am 16.0 WNW 17 21 1020.2 - 0.0 - Partly cloudy 10 - - - -
30/01:30am 16.1 WNW 19 23 1020.2 - 0.0 - Partly cloudy 10 - - - -
30/01:07am 16.1 WNW 17 21 1020.4 - 0.0 - Partly cloudy 10 - - - -
30/01:00am 16.1 WNW 17 21 1020.4 - 0.0 - Partly cloudy 10 - - - -
30/12:59am 16.1 WNW 17 21 1020.4 - 0.0 - Partly cloudy 9 - - - -
30/12:48am 16.1 WNW 19 22 1020.3 - 0.0 - Partly cloudy 6 - - - -
30/12:42am 16.3 WNW 18 22 1020.3 - 0.0 - Partly cloudy 10 - - - -
30/12:32am 16.3 WNW 17 23 1020.4 - 0.0 - Partly cloudy 10 - - - -
30/12:30am 16.3 WNW 18 23 1020.3 - 0.0 - Partly cloudy 10 - - - -
30/12:15am 16.5 WNW 17 21 1020.3 - 0.0 - Partly cloudy 10 - - - -
30/12:00am 16.4 WNW 16 22 1020.4 - 0.0 - Cloudy 10 - - - -
 
Date/Time
EDT
Temp

°C
Wind Pressure Rain
since 9am
mm
Weather Cloud Vis
km
Sea
Height
m
Swell
Dir
 
Speed
knots
Gust
knots
hPa Trend Height
m
Period
s
Dir
29/11:30pm 16.3 WNW 15 19 1020.4 - 0.0 - Partly cloudy 10 - - - -
29/11:00pm 16.2 WNW 16 20 1020.5 - 0.0 - Partly cloudy 10 - - - -
29/10:30pm 15.9 WNW 14 18 1020.4 - 0.0 - Partly cloudy 10 - - - -
29/10:00pm 16.5 WNW 14 18 1020.4 - 0.0 - Partly cloudy 10 - - - -
29/09:58pm 16.4 WNW 14 18 1020.3 - 0.0 - Partly cloudy 10 - - - -
29/09:30pm 16.6 WNW 15 18 1020.2 - 0.0 - Partly cloudy 10 - - - -
29/09:00pm 16.1 WNW 11 15 1020.0 - 0.0 - Cloudy 10 - - - -
29/08:30pm 15.9 WNW 13 16 1019.6 - 0.0 - Partly cloudy 10 - - - -
29/08:00pm 16.1 WNW 16 20 1019.3 - 0.0 - - 10 - - - -
29/07:30pm 16.6 WNW 19 23 1019.0 - 0.0 - Partly cloudy 10 - - - -
29/07:00pm 16.9 WNW 20 26 1018.7 - 0.0 - Partly cloudy 10 - - - -
29/06:30pm 17.0 WNW 21 26 1018.3 - 0.0 - Partly cloudy 10 - - - -
29/06:00pm 17.3 WNW 20 25 1018.1 - 0.0 - Cloudy 10 - - - -
29/05:30pm 17.5 WNW 19 26 1018.0 - 0.0 - Partly cloudy 10 - - - -
29/05:00pm 17.7 WNW 18 23 1018.0 - 0.0 - Partly cloudy 10 - - - -
29/04:30pm 17.9 WNW 21 25 1017.8 - 0.0 - Partly cloudy 10 - - - -
29/04:00pm 17.7 NW 21 27 1017.9 - 0.0 - Partly cloudy 10 - - - -
29/03:30pm 18.4 NW 21 26 1017.9 - 0.0 - Partly cloudy 10 - - - -
29/03:00pm 18.0 NW 21 26 1018.0 - 0.0 - Cloudy 10 - - - -
29/02:30pm 17.7 NW 19 23 1018.1 - 0.0 - Cloudy 10 - - - -
29/02:00pm 18.1 NW 19 22 1018.3 - 0.0 - Partly cloudy 10 - - - -
29/01:30pm 18.8 NW 16 21 1018.3 - 0.0 - Partly cloudy 10 - - - -
29/01:00pm 17.9 NW 18 24 1018.6 - 0.0 - Partly cloudy 10 - - - -
29/12:30pm 17.4 NW 19 23 1018.7 - 0.0 - Partly cloudy 10 - - - -
29/12:00pm 17.9 NW 16 20 1018.8 - 0.0 - Partly cloudy 10 - - - -
29/11:30am 17.7 WNW 15 19 1018.9 - 0.0 - Partly cloudy 10 - - - -
29/11:00am 16.3 WNW 18 23 1019.3 - 0.0 - Partly cloudy 10 - - - -
29/10:30am 16.0 WNW 13 18 1019.3 - 0.0 - Partly cloudy 10 - - - -
29/10:00am 16.4 WNW 14 17 1019.3 - 0.0 - Partly cloudy 10 - - - -
29/09:30am 15.5 WNW 14 17 1019.0 - 0.0 - Partly cloudy 10 - - - -
29/09:00am 14.7 WNW 11 15 1019.0 - 0.0 - Cloudy 10 - - - -
29/08:30am 14.7 WNW 15 18 1019.0 - 0.0 - Cloudy 10 - - - -
29/08:00am 14.1 W 12 15 1018.9 - 0.0 - Cloudy 10 - - - -
29/07:30am 13.7 W 12 16 1018.8 - 0.0 - Cloudy 10 - - - -
29/07:00am 13.8 WNW 16 20 1018.6 - 0.0 - Cloudy 10 - - - -
29/06:30am 13.9 WNW 13 17 1018.5 - 0.0 - Cloudy 10 - - - -
29/06:00am 13.7 WNW 14 19 1018.5 - 0.0 - Cloudy 10 - - - -
29/05:30am 13.6 W 13 17 1018.3 - 0.0 - Cloudy 10 - - - -
29/05:00am 13.1 W 9 13 1018.6 - 0.0 - Cloudy 10 - - - -
29/04:30am 13.0 W 15 19 1018.8 - 0.0 - Cloudy 10 - - - -
29/04:00am 13.2 W 13 18 1018.3 - 0.0 - Cloudy 10 - - - -
29/03:30am 13.3 W 14 19 1018.5 - 0.0 - Cloudy 10 - - - -
29/03:00am 13.3 W 14 18 1018.7 - 0.0 - Cloudy 10 - - - -
29/02:30am 12.9 W 11 15 1019.1 - 0.0 - Cloudy 10 - - - -
29/02:00am 12.3 W 7 10 1019.2 - 0.0 - Cloudy 10 - - - -
29/01:30am 12.2 W 10 13 1019.5 - 0.0 - Cloudy 10 - - - -
29/01:00am 12.0 W 16 20 1019.6 - 0.0 - Partly cloudy 10 - - - -
29/12:30am 12.1 WNW 18 21 1019.4 - 0.0 - - 10 - - - -
29/12:00am 12.7 WNW 19 24 1019.4 - 0.0 - - 10 - - - -
 
Date/Time
EDT
Temp

°C
Wind Pressure Rain
since 9am
mm
Weather Cloud Vis
km
Sea
Height
m
Swell
Dir
 
Speed
knots
Gust
knots
hPa Trend Height
m
Period
s
Dir
28/11:30pm 12.8 WNW 19 23 1019.7 - 0.0 - - 10 - - - -
28/11:00pm 13.3 WNW 19 23 1019.7 - 0.0 - - 10 - - - -
28/10:30pm 13.5 WNW 17 21 1019.8 - 0.0 - - 10 - - - -
28/10:00pm 13.9 WNW 17 20 1019.8 - 0.0 - - 10 - - - -
28/09:30pm 14.1 WNW 13 17 1019.8 - 0.0 - - 10 - - - -
28/09:00pm 14.4 WNW 14 17 1019.6 - 0.0 - - 10 - - - -
28/08:30pm 14.9 WNW 15 19 1019.3 - 0.0 - - 10 - - - -
28/08:00pm 14.6 W 15 19 1019.0 - 0.0 - - 10 - - - -
28/07:30pm 15.6 W 16 20 1019.0 - 0.0 - - 10 - - - -
28/07:00pm 16.3 WNW 16 20 1018.8 - 0.0 - - 10 - - - -
28/06:30pm 17.2 WNW 15 20 1018.6 - 0.0 - - 10 - - - -
28/06:00pm 18.0 WNW 17 22 1018.6 - 0.0 - - 10 - - - -
28/05:30pm 17.4 NW 21 27 1018.6 - 0.0 - - 10 - - - -
28/05:00pm 17.3 NW 22 29 1018.8 - 0.0 - - 10 - - - -
28/04:30pm 17.4 NW 22 28 1018.9 - 0.0 - - 10 - - - -
28/04:00pm 17.6 NW 20 25 1019.1 - 0.0 - - 10 - - - -
28/03:30pm 17.6 NW 20 25 1019.3 - 0.0 - - 10 - - - -
28/03:00pm 17.4 NW 20 25 1019.7 - 0.0 - - 10 - - - -
28/02:30pm 17.1 NW 20 23 1020.0 - 0.0 - - 10 - - - -
28/02:00pm 17.2 NW 17 21 1020.5 - 0.0 - - 10 - - - -
28/01:56pm 17.4 NW 16 21 1020.6 - 0.0 - - 10 - - - -
28/01:30pm 16.8 NNW 9 11 1021.1 - 0.0 - - 10 - - - -
28/01:00pm 16.1 NNW 9 11 1021.4 - 0.0 - - 10 - - - -
28/12:30pm 15.7 N 9 11 1021.7 - 0.0 - - 10 - - - -
28/12:00pm 15.3 NNW 9 12 1022.0 - 0.0 - - 10 - - - -
28/11:30am 15.1 NNW 8 10 1022.2 - 0.0 - - 10 - - - -
28/11:00am 14.8 NNE 4 7 1022.3 - 0.0 - - 10 - - - -
28/10:30am 14.0 WSW 3 5 1022.7 - 0.0 - - 10 - - - -
28/10:00am 13.1 S 4 5 1022.7 - 0.0 - - 10 - - - -

Other Formats:

Comma delimited format used in spreadsheet applications
http://www.bom.gov.au/fwo/IDT60701/IDT60701.95960.axf

JavaScript Object Notation format (JSON) in row-major order
http://www.bom.gov.au/fwo/IDT60701/IDT60701.95960.json